Time;durP1;ratioP1;P1;durP2;ratioP2;P2;SDS_P1;SDS_P2;PMS_P1;PMS_P2;Temp;Humidity;BMP_temperature;BMP_pressure;BME280_temperature;BME280_humidity;BME280_pressure;Samples;Min_cycle;Max_cycle;Signal;HPM_P1;HPM_P2
2022/04/05 00:00:36;;;;;;;39.85;22.42;;;1.90;99.90;;;;;;5048858;28;20039;-52
2022/04/05 00:03:02;;;;;;;34.25;20.08;;;1.90;99.90;;;;;;5048588;28;20033;-52
2022/04/05 00:05:27;;;;;;;33.55;20.20;;;1.90;99.90;;;;;;5050519;28;20033;-53
2022/04/05 00:07:54;;;;;;;39.42;22.17;;;1.80;99.90;;;;;;5071423;28;20144;-54
2022/04/05 00:10:21;;;;;;;38.40;21.60;;;1.80;99.90;;;;;;5054430;28;20061;-53
2022/04/05 00:12:47;;;;;;;35.28;19.67;;;1.80;99.90;;;;;;5048946;28;20118;-54
2022/04/05 00:15:13;;;;;;;34.28;20.85;;;1.80;99.90;;;;;;5050655;28;20029;-52
2022/04/05 00:17:39;;;;;;;36.13;21.25;;;1.70;99.90;;;;;;5051858;28;20472;-52
2022/04/05 00:20:07;;;;;;;38.15;21.15;;;1.70;99.90;;;;;;5051688;28;20021;-53
2022/04/05 00:22:33;;;;;;;32.17;19.90;;;1.70;99.90;;;;;;5051943;28;20117;-54
2022/04/05 00:24:59;;;;;;;32.33;19.87;;;1.70;99.90;;;;;;5051550;28;20695;-53
2022/04/05 00:27:24;;;;;;;39.75;21.80;;;1.60;99.90;;;;;;5051814;28;20115;-53
2022/04/05 00:29:50;;;;;;;33.45;21.30;;;1.60;99.90;;;;;;5051667;28;20052;-53
2022/04/05 00:32:16;;;;;;;37.08;22.30;;;1.60;99.90;;;;;;5051460;28;20108;-53
2022/04/05 00:34:41;;;;;;;32.35;20.15;;;1.60;99.90;;;;;;5041608;28;20037;-53
2022/04/05 00:37:07;;;;;;;39.42;22.30;;;1.60;99.90;;;;;;5031631;28;20044;-53
2022/04/05 00:39:33;;;;;;;39.35;24.33;;;1.60;99.90;;;;;;5031365;28;20525;-52
2022/04/05 00:41:59;;;;;;;38.50;22.70;;;1.70;99.90;;;;;;5031774;28;20046;-53
2022/04/05 00:44:25;;;;;;;34.58;21.85;;;1.70;99.90;;;;;;5031457;28;20029;-52
2022/04/05 00:46:52;;;;;;;37.47;22.45;;;1.70;99.90;;;;;;5031411;28;20033;-52
2022/04/05 00:49:32;;;;;;;37.03;22.83;;;1.80;99.90;;;;;;5031288;28;20519;-53
2022/04/05 00:52:01;;;;;;;36.00;21.55;;;1.80;99.90;;;;;;5030233;28;20029;-52
2022/04/05 00:54:30;;;;;;;37.80;22.65;;;1.80;99.90;;;;;;5031676;28;20030;-53
2022/04/05 00:56:57;;;;;;;38.60;23.52;;;1.80;99.90;;;;;;5034322;28;20386;-53
2022/04/05 00:59:26;;;;;;;35.42;22.17;;;1.80;99.90;;;;;;5051192;28;20032;-52
2022/04/05 01:01:54;;;;;;;34.80;22.63;;;1.80;99.90;;;;;;5051005;28;20511;-53
2022/04/05 01:04:21;;;;;;;34.10;22.20;;;1.90;99.90;;;;;;5051134;28;20644;-54
2022/04/05 01:06:50;;;;;;;35.50;20.60;;;1.80;99.90;;;;;;5049433;28;20049;-51
2022/04/05 01:09:17;;;;;;;34.85;21.95;;;1.90;99.90;;;;;;5050915;28;20440;-53
2022/04/05 01:11:43;;;;;;;34.15;22.48;;;2.00;99.90;;;;;;5054638;28;20025;-53
2022/04/05 01:14:09;;;;;;;35.70;23.60;;;2.00;99.90;;;;;;5058601;28;20040;-53
2022/04/05 01:16:38;;;;;;;35.40;22.65;;;2.00;99.90;;;;;;5050965;28;20468;-53
2022/04/05 01:19:06;;;;;;;33.78;21.83;;;2.00;99.90;;;;;;5050956;28;20029;-52
2022/04/05 01:21:35;;;;;;;35.20;22.58;;;2.00;99.90;;;;;;5050483;28;20065;-52
2022/04/05 01:24:12;;;;;;;36.72;21.67;;;2.10;99.90;;;;;;5050893;28;20028;-52
2022/04/05 01:26:49;;;;;;;36.93;21.37;;;2.10;99.90;;;;;;5050822;28;20086;-53
2022/04/05 01:29:17;;;;;;;34.17;21.83;;;2.10;99.90;;;;;;5050973;28;20456;-53
2022/04/05 01:31:46;;;;;;;;;;;2.10;99.90;;;;;;5051249;28;20025;-52
2022/04/05 01:34:14;;;;;;;37.03;22.40;;;2.10;99.90;;;;;;5045033;28;19951;-52
2022/04/05 01:36:40;;;;;;;;;;;2.10;99.90;;;;;;5029601;28;20022;-53
2022/04/05 01:39:06;;;;;;;34.38;22.23;;;2.20;99.90;;;;;;5033616;28;20310;-52
2022/04/05 01:41:32;;;;;;;32.50;20.52;;;2.20;99.90;;;;;;5050207;28;20556;-53
2022/04/05 01:43:58;;;;;;;33.72;22.35;;;2.20;99.90;;;;;;5050459;28;20112;-53
2022/04/05 01:46:23;;;;;;;40.30;25.13;;;2.30;99.90;;;;;;5050214;28;20360;-52
2022/04/05 01:48:50;;;;;;;37.30;22.95;;;2.30;99.90;;;;;;5050080;28;20029;-52
2022/04/05 01:51:16;;;;;;;38.20;22.58;;;2.30;99.90;;;;;;5050509;28;20020;-53
2022/04/05 01:53:41;;;;;;;36.08;23.10;;;2.30;99.90;;;;;;5049887;28;20062;-52
2022/04/05 01:56:07;;;;;;;33.50;21.63;;;2.30;99.90;;;;;;5050063;28;20570;-51
2022/04/05 01:58:36;;;;;;;33.53;21.27;;;2.30;99.90;;;;;;5038777;28;20059;-52
2022/04/05 02:01:02;;;;;;;40.05;23.05;;;2.30;99.90;;;;;;5028512;28;20037;-52
2022/04/05 02:03:29;;;;;;;37.42;22.75;;;2.30;99.90;;;;;;5029933;28;20025;-53
2022/04/05 02:05:55;;;;;;;34.17;21.95;;;2.40;99.90;;;;;;5029610;28;20443;-53
2022/04/05 02:08:20;;;;;;;34.70;21.77;;;2.40;99.90;;;;;;5029863;28;20033;-53
2022/04/05 02:10:46;;;;;;;40.25;24.35;;;2.40;99.90;;;;;;5029684;28;20081;-53
2022/04/05 02:13:11;;;;;;;36.20;22.65;;;2.40;99.90;;;;;;5029836;28;20056;-53
2022/04/05 02:15:37;;;;;;;35.28;23.52;;;2.50;99.90;;;;;;5029797;28;20389;-53
2022/04/05 02:18:03;;;;;;;34.08;22.27;;;2.50;99.90;;;;;;5028410;28;20025;-53
2022/04/05 02:20:29;;;;;;;37.60;23.85;;;2.50;99.90;;;;;;5029798;28;20033;-54
2022/04/05 02:22:55;;;;;;;33.92;21.38;;;2.50;99.90;;;;;;5029423;28;20117;-53
2022/04/05 02:25:20;;;;;;;34.53;21.70;;;2.50;99.90;;;;;;5029431;28;20017;-53
2022/04/05 02:27:47;;;;;;;39.65;24.67;;;2.50;99.90;;;;;;5028876;28;20052;-53
2022/04/05 02:30:13;;;;;;;41.10;22.88;;;2.50;99.90;;;;;;5029834;28;20100;-53
2022/04/05 02:32:39;;;;;;;37.42;21.77;;;2.50;99.90;;;;;;5048183;28;20013;-53
2022/04/05 02:35:05;;;;;;;31.70;21.48;;;2.50;99.90;;;;;;5053038;28;20033;-52
2022/04/05 02:37:31;;;;;;;31.93;20.33;;;2.60;99.90;;;;;;5048892;28;20828;-52
2022/04/05 02:39:57;;;;;;;32.50;20.85;;;2.60;99.90;;;;;;5048979;28;20079;-53
2022/04/05 02:42:22;;;;;;;36.72;23.20;;;2.60;99.90;;;;;;5049294;28;20033;-57
2022/04/05 02:44:48;;;;;;;34.88;20.95;;;2.60;99.90;;;;;;5049071;28;20025;-52
2022/04/05 02:47:15;;;;;;;31.90;21.08;;;2.60;99.90;;;;;;5049246;28;20035;-53
2022/04/05 02:49:41;;;;;;;32.15;21.75;;;2.70;99.90;;;;;;5048964;28;20043;-53
2022/04/05 02:52:07;;;;;;;33.75;21.77;;;2.70;99.90;;;;;;5048912;28;20033;-53
2022/04/05 02:54:32;;;;;;;36.83;21.52;;;2.70;99.90;;;;;;5048954;28;20032;-53
2022/04/05 02:56:58;;;;;;;30.65;19.90;;;2.70;99.90;;;;;;5049204;28;20498;-51
2022/04/05 02:59:24;;;;;;;39.22;21.80;;;2.80;99.90;;;;;;5033424;28;20354;-53
2022/04/05 03:01:49;;;;;;;37.05;21.63;;;2.70;99.90;;;;;;5032039;28;20040;-52
2022/04/05 03:04:15;;;;;;;33.00;21.20;;;2.80;99.90;;;;;;5047590;28;20021;-52
2022/04/05 03:06:41;;;;;;;32.45;20.58;;;2.70;99.90;;;;;;5049051;28;20057;-53
2022/04/05 03:09:07;;;;;;;33.58;21.33;;;2.80;99.90;;;;;;5048679;28;20619;-52
2022/04/05 03:11:33;;;;;;;33.63;20.90;;;2.80;99.90;;;;;;5049105;28;20111;-53
2022/04/05 03:13:58;;;;;;;33.63;21.98;;;2.80;99.90;;;;;;5048953;28;20075;-53
2022/04/05 03:16:24;;;;;;;34.30;22.88;;;2.80;99.90;;;;;;5049643;28;20085;-53
2022/04/05 03:18:51;;;;;;;33.03;21.13;;;2.80;99.90;;;;;;5057661;28;20040;-53
2022/04/05 03:21:17;;;;;;;36.97;23.80;;;2.80;99.90;;;;;;5040770;28;20037;-53
2022/04/05 03:23:42;;;;;;;32.63;21.67;;;2.80;99.90;;;;;;5029000;28;20026;-51
2022/04/05 03:26:08;;;;;;;31.92;20.38;;;2.80;99.90;;;;;;5029035;28;20091;-52
2022/04/05 03:28:34;;;;;;;35.53;21.98;;;2.80;99.90;;;;;;5029026;28;20473;-53
2022/04/05 03:31:00;;;;;;;36.78;24.05;;;2.80;99.90;;;;;;5028868;28;20527;-52
2022/04/05 03:33:25;;;;;;;37.50;23.08;;;2.80;99.90;;;;;;5028859;28;20022;-52
2022/04/05 03:35:54;;;;;;;33.97;21.17;;;2.90;99.90;;;;;;5028698;28;20047;-52
2022/04/05 03:38:20;;;;;;;33.35;22.05;;;2.90;99.90;;;;;;5028832;28;20737;-51
2022/04/05 03:40:46;;;;;;;38.20;23.10;;;2.90;99.90;;;;;;5028788;28;20108;-52
2022/04/05 03:43:12;;;;;;;34.40;21.92;;;2.90;99.90;;;;;;5029165;28;20033;-53
2022/04/05 03:45:39;;;;;;;39.90;23.80;;;2.90;99.90;;;;;;5028756;28;20122;-53
2022/04/05 03:48:05;;;;;;;38.83;23.58;;;2.90;99.90;;;;;;5028674;28;20465;-53
2022/04/05 03:50:31;;;;;;;36.58;23.08;;;2.90;99.90;;;;;;5031992;28;20037;-53
2022/04/05 03:52:59;;;;;;;36.80;23.77;;;2.90;99.90;;;;;;5033409;28;20029;-52
2022/04/05 03:55:25;;;;;;;;;;;2.90;99.90;;;;;;5033354;28;20034;-52
2022/04/05 03:57:51;;;;;;;34.47;22.58;;;3.00;99.90;;;;;;5044429;28;19909;-52
2022/04/05 04:00:17;;;;;;;38.10;24.55;;;3.00;99.90;;;;;;5052641;28;20029;-52
2022/04/05 04:02:43;;;;;;;39.55;23.85;;;3.00;99.90;;;;;;5052401;28;20029;-51
2022/04/05 04:05:09;;;;;;;37.63;25.00;;;3.00;99.90;;;;;;5052391;28;20044;-52
2022/04/05 04:07:40;;;;;;;38.42;24.38;;;3.00;99.90;;;;;;5052382;28;20086;-52
2022/04/05 04:10:07;;;;;;;38.55;24.80;;;3.00;99.90;;;;;;5052443;28;20021;-53
2022/04/05 04:12:32;;;;;;;39.60;24.00;;;3.00;99.90;;;;;;5052342;28;20098;-53
2022/04/05 04:14:58;;;;;;;37.65;23.90;;;3.10;99.90;;;;;;5052086;28;20476;-52
2022/04/05 04:17:25;;;;;;;43.13;25.00;;;3.00;99.90;;;;;;5052414;28;20021;-52
2022/04/05 04:19:51;;;;;;;37.80;24.40;;;3.10;99.90;;;;;;5052005;28;20498;-53
2022/04/05 04:22:17;;;;;;;37.33;24.23;;;3.00;99.90;;;;;;5051932;28;20056;-53
2022/04/05 04:24:43;;;;;;;34.63;23.52;;;3.00;99.90;;;;;;5052055;28;20477;-51
2022/04/05 04:27:11;;;;;;;42.10;24.65;;;3.10;99.90;;;;;;5052203;28;20427;-53
2022/04/05 04:29:37;;;;;;;35.35;23.10;;;3.10;99.90;;;;;;5051738;28;20025;-52
2022/04/05 04:32:04;;;;;;;41.17;24.17;;;3.10;99.90;;;;;;5051519;28;20025;-53
2022/04/05 04:34:29;;;;;;;45.78;26.42;;;3.10;99.90;;;;;;5051710;28;20036;-52
2022/04/05 04:36:56;;;;;;;37.65;26.35;;;3.10;99.90;;;;;;5051481;28;20036;-53
2022/04/05 04:39:22;;;;;;;48.28;26.70;;;3.10;99.90;;;;;;5051717;28;20072;-52
2022/04/05 04:41:47;;;;;;;39.15;23.85;;;3.10;99.90;;;;;;5051549;28;20069;-53
2022/04/05 04:44:13;;;;;;;38.75;25.13;;;3.10;99.90;;;;;;5051486;28;20021;-53
2022/04/05 04:46:39;;;;;;;38.20;23.85;;;3.20;99.90;;;;;;5051606;28;20033;-52
2022/04/05 04:49:05;;;;;;;36.65;22.88;;;3.10;99.90;;;;;;5051407;28;20086;-54
2022/04/05 04:51:31;;;;;;;37.90;23.83;;;3.20;99.90;;;;;;5051611;28;20086;-52
2022/04/05 04:53:57;;;;;;;34.75;23.98;;;3.20;99.90;;;;;;5051398;28;20025;-52
2022/04/05 04:56:22;;;;;;;44.58;27.33;;;3.10;99.90;;;;;;5052441;28;20033;-53
2022/04/05 04:58:48;;;;;;;43.90;25.35;;;3.20;99.90;;;;;;5062258;28;20120;-52
2022/04/05 05:01:14;;;;;;;39.17;24.25;;;3.20;99.90;;;;;;5056104;28;20033;-52
2022/04/05 05:03:39;;;;;;;46.13;26.75;;;3.20;99.90;;;;;;5051234;28;20108;-51
2022/04/05 05:06:05;;;;;;;39.15;25.92;;;3.20;99.90;;;;;;5050688;28;20065;-53
2022/04/05 05:08:31;;;;;;;41.22;24.48;;;3.20;99.90;;;;;;5050936;28;20037;-53
2022/04/05 05:10:57;;;;;;;34.90;23.95;;;3.20;99.90;;;;;;5051054;28;20559;-53
2022/04/05 05:13:23;;;;;;;42.20;25.65;;;3.30;99.90;;;;;;5050795;28;20041;-53
2022/04/05 05:15:49;;;;;;;40.53;26.52;;;3.30;99.90;;;;;;5050559;28;20555;-53
2022/04/05 05:18:18;;;;;;;41.65;26.10;;;3.30;99.90;;;;;;5050900;28;20029;-53
2022/04/05 05:20:44;;;;;;;40.25;25.27;;;3.30;99.90;;;;;;5050895;28;20116;-53
2022/04/05 05:23:10;;;;;;;40.78;25.35;;;3.30;99.90;;;;;;5052025;28;20104;-53
2022/04/05 05:25:35;;;;;;;42.85;25.95;;;3.40;99.90;;;;;;5056962;28;20028;-55
2022/04/05 05:28:03;;;;;;;40.53;25.85;;;3.40;99.90;;;;;;5053059;28;20037;-52
2022/04/05 05:30:29;;;;;;;45.28;27.15;;;3.40;99.90;;;;;;5050437;28;20148;-52
2022/04/05 05:32:54;;;;;;;41.83;28.67;;;3.40;99.90;;;;;;5050768;28;20099;-53
2022/04/05 05:35:21;;;;;;;49.25;30.60;;;3.40;99.90;;;;;;5050215;28;20040;-52
2022/04/05 05:37:49;;;;;;;54.75;30.83;;;3.40;99.90;;;;;;5050359;28;20024;-52
2022/04/05 05:40:16;;;;;;;44.55;27.83;;;3.40;99.90;;;;;;5048685;28;20039;-52
2022/04/05 05:42:55;;;;;;;59.95;36.75;;;3.40;99.90;;;;;;5050412;28;20099;-52
2022/04/05 05:45:21;;;;;;;56.70;35.80;;;3.50;99.90;;;;;;5050061;28;20017;-52
2022/04/05 05:47:47;;;;;;;46.80;28.85;;;3.50;99.90;;;;;;5050295;28;20028;-52
2022/04/05 05:50:13;;;;;;;37.58;25.95;;;3.50;99.90;;;;;;5050144;28;20021;-51
2022/04/05 05:52:43;;;;;;;39.80;25.58;;;3.50;99.90;;;;;;5050093;28;20116;-53
2022/04/05 05:55:11;;;;;;;41.65;25.35;;;3.50;99.90;;;;;;5050070;28;20120;-52
2022/04/05 05:57:38;;;;;;;41.70;24.35;;;3.50;99.90;;;;;;5039844;28;20060;-52
2022/04/05 06:00:07;;;;;;;40.40;24.33;;;3.50;99.90;;;;;;5046201;28;20028;-53
2022/04/05 06:02:36;;;;;;;35.03;23.00;;;3.50;99.90;;;;;;5049716;28;20048;-52
2022/04/05 06:05:02;;;;;;;37.55;24.52;;;3.50;99.90;;;;;;5049863;28;20033;-53
2022/04/05 06:07:28;;;;;;;40.97;25.60;;;3.50;99.90;;;;;;5049727;28;20557;-51
2022/04/05 06:09:54;;;;;;;41.63;26.20;;;3.50;99.90;;;;;;5050142;28;20025;-51
2022/04/05 06:12:19;;;;;;;39.47;24.17;;;3.60;99.90;;;;;;5050054;28;20124;-52
2022/04/05 06:14:45;;;;;;;39.85;26.08;;;3.60;99.90;;;;;;5049516;28;20047;-53
2022/04/05 06:17:10;;;;;;;40.40;25.90;;;3.60;99.90;;;;;;5050020;28;20167;-53
2022/04/05 06:19:37;;;;;;;40.72;25.13;;;3.60;99.90;;;;;;5049608;28;20586;-51
2022/04/05 06:22:04;;;;;;;42.35;26.77;;;3.60;99.90;;;;;;5049462;28;20037;-54
2022/04/05 06:24:30;;;;;;;40.60;25.53;;;3.60;99.90;;;;;;5049495;28;20048;-51
2022/04/05 06:26:56;;;;;;;43.17;27.92;;;3.60;99.90;;;;;;5049797;28;20370;-51
2022/04/05 06:29:22;;;;;;;44.83;27.67;;;3.60;99.90;;;;;;5049550;28;20108;-53
2022/04/05 06:31:47;;;;;;;46.33;28.40;;;3.60;99.90;;;;;;5048130;28;20029;-52
2022/04/05 06:34:14;;;;;;;44.85;27.52;;;3.60;99.90;;;;;;5049259;28;20021;-52
2022/04/05 06:36:40;;;;;;;47.60;30.88;;;3.60;99.90;;;;;;5049322;28;20029;-52
2022/04/05 06:39:06;;;;;;;47.80;28.98;;;3.60;99.90;;;;;;5049033;28;20495;-52
2022/04/05 06:41:32;;;;;;;44.63;28.03;;;3.60;99.90;;;;;;5049190;28;20049;-53
2022/04/05 06:43:58;;;;;;;40.95;26.55;;;3.70;99.90;;;;;;5048996;28;20040;-53
2022/04/05 06:46:24;;;;;;;40.63;27.23;;;3.70;99.90;;;;;;5049081;28;20579;-53
2022/04/05 06:48:49;;;;;;;43.40;26.48;;;3.60;99.90;;;;;;5048962;28;20043;-52
2022/04/05 06:51:15;;;;;;;38.20;24.67;;;3.70;99.90;;;;;;5049140;28;20171;-53
2022/04/05 06:53:41;;;;;;;38.45;24.38;;;3.70;99.90;;;;;;5048768;28;20476;-53
2022/04/05 06:56:09;;;;;;;37.83;25.23;;;3.70;99.90;;;;;;5048840;28;20025;-52
2022/04/05 06:58:34;;;;;;;;;;;3.80;99.90;;;;;;5037509;28;20158;-52
2022/04/05 07:01:00;;;;;;;36.70;23.30;;;3.80;99.90;;;;;;5047454;28;20007;-51
2022/04/05 07:03:26;;;;;;;35.83;23.42;;;3.80;99.90;;;;;;5048985;28;20045;-52
2022/04/05 07:05:51;;;;;;;38.58;25.13;;;3.80;99.90;;;;;;5048485;28;20663;-53
2022/04/05 07:08:17;;;;;;;34.80;23.27;;;3.80;99.90;;;;;;5048700;28;20021;-53
2022/04/05 07:10:43;;;;;;;35.92;23.60;;;3.90;99.90;;;;;;5048930;28;20021;-51
2022/04/05 07:13:09;;;;;;;34.72;21.95;;;3.80;99.90;;;;;;5049051;28;20123;-52
2022/04/05 07:15:34;;;;;;;37.28;23.80;;;3.80;99.90;;;;;;5049300;28;20041;-52
2022/04/05 07:18:00;;;;;;;30.77;21.13;;;3.80;99.90;;;;;;5039634;28;20044;-52
2022/04/05 07:20:26;;;;;;;33.42;20.23;;;3.80;99.90;;;;;;5049974;28;20110;-52
2022/04/05 07:22:51;;;;;;;34.75;23.20;;;3.80;99.90;;;;;;5052879;28;20027;-52
2022/04/05 07:25:22;;;;;;;37.45;23.08;;;3.90;99.90;;;;;;5050019;28;20029;-52
2022/04/05 07:27:51;;;;;;;34.28;21.95;;;3.90;99.90;;;;;;5049113;28;20116;-51
2022/04/05 07:30:17;;;;;;;33.40;20.70;;;3.80;99.90;;;;;;5052907;28;20263;-53
2022/04/05 07:32:44;;;;;;;39.55;23.90;;;3.80;99.90;;;;;;5049277;28;20508;-53
2022/04/05 07:35:12;;;;;;;34.13;22.17;;;3.80;99.90;;;;;;5042548;28;20082;-53
2022/04/05 07:37:37;;;;;;;31.52;20.63;;;3.80;99.90;;;;;;5048751;28;20033;-52
2022/04/05 07:40:10;;;;;;;30.27;20.02;;;3.80;99.90;;;;;;5048419;28;20035;-52
2022/04/05 07:42:37;;;;;;;31.50;19.83;;;3.80;99.90;;;;;;5048709;28;20063;-52
2022/04/05 07:45:03;;;;;;;29.90;20.65;;;3.90;99.90;;;;;;5048348;28;20021;-51
2022/04/05 07:47:29;;;;;;;28.92;17.88;;;3.90;99.90;;;;;;5048317;28;20041;-53
2022/04/05 07:49:55;;;;;;;33.88;20.80;;;3.80;99.90;;;;;;5048118;28;20035;-53
2022/04/05 07:52:21;;;;;;;29.65;19.45;;;3.90;99.90;;;;;;5048201;28;20029;-53
2022/04/05 07:54:47;;;;;;;29.00;18.13;;;3.90;99.90;;;;;;5058300;28;20039;-52
2022/04/05 07:57:13;;;;;;;30.20;17.98;;;3.80;99.90;;;;;;5050780;28;20032;-53
2022/04/05 07:59:39;;;;;;;33.80;21.05;;;3.90;99.90;;;;;;5043156;28;20120;-53
2022/04/05 08:02:05;;;;;;;30.10;19.45;;;4.00;99.90;;;;;;5048191;28;20041;-53
2022/04/05 08:04:31;;;;;;;26.60;17.20;;;4.00;99.90;;;;;;5047745;28;20037;-53
2022/04/05 08:06:57;;;;;;;30.75;19.42;;;3.90;99.90;;;;;;5047984;28;20064;-52
2022/04/05 08:09:23;;;;;;;34.53;20.90;;;3.90;99.90;;;;;;5046484;28;20033;-52
2022/04/05 08:11:49;;;;;;;27.10;17.60;;;4.00;99.90;;;;;;5048100;28;20210;-52
2022/04/05 08:14:15;;;;;;;31.10;19.92;;;4.00;99.90;;;;;;5047697;28;20388;-52
2022/04/05 08:16:41;;;;;;;31.85;19.73;;;4.00;99.90;;;;;;5047904;28;20674;-52
2022/04/05 08:19:09;;;;;;;35.30;20.45;;;4.00;99.90;;;;;;5046313;28;20057;-53
2022/04/05 08:21:35;;;;;;;34.05;22.55;;;4.10;99.90;;;;;;5046074;28;20052;-53
2022/04/05 08:24:00;;;;;;;37.90;23.80;;;4.10;99.90;;;;;;5046292;28;20036;-53
2022/04/05 08:26:26;;;;;;;42.60;27.90;;;4.10;99.90;;;;;;5046210;28;20036;-52
2022/04/05 08:28:56;;;;;;;34.30;22.13;;;4.20;99.90;;;;;;5046339;28;20057;-52
2022/04/05 08:31:25;;;;;;;36.30;22.80;;;4.20;99.90;;;;;;5046078;28;20064;-53
2022/04/05 08:33:52;;;;;;;46.95;27.52;;;4.20;99.90;;;;;;5045910;28;20479;-52
2022/04/05 08:36:17;;;;;;;37.92;24.63;;;4.20;99.90;;;;;;5048888;28;20036;-52
2022/04/05 08:38:43;;;;;;;32.78;21.83;;;4.20;99.90;;;;;;5051437;28;20037;-53
2022/04/05 08:41:10;;;;;;;33.92;21.15;;;4.30;99.90;;;;;;5051780;28;20048;-53
2022/04/05 08:43:37;;;;;;;28.88;17.83;;;4.30;99.90;;;;;;5051401;28;20051;-53
2022/04/05 08:46:05;;;;;;;29.50;17.92;;;4.40;99.90;;;;;;5051270;28;20033;-53
2022/04/05 08:48:33;;;;;;;27.60;17.55;;;4.30;99.90;;;;;;5051101;28;20021;-51
2022/04/05 08:50:59;;;;;;;41.90;26.05;;;4.30;99.90;;;;;;5051032;28;20052;-51
2022/04/05 08:53:25;;;;;;;28.77;19.20;;;4.40;99.90;;;;;;5050181;28;20368;-52
2022/04/05 08:55:51;;;;;;;29.23;18.92;;;4.50;99.90;;;;;;5050122;28;20365;-53
2022/04/05 08:58:18;;;;;;;29.70;18.87;;;4.50;99.90;;;;;;5038750;28;20025;-53
2022/04/05 09:00:44;;;;;;;29.98;19.20;;;4.50;99.90;;;;;;5050782;28;20286;-51
2022/04/05 09:03:10;;;;;;;30.45;19.33;;;4.50;99.90;;;;;;5051024;28;20033;-52
2022/04/05 09:05:38;;;;;;;30.63;19.25;;;4.50;99.90;;;;;;5050646;28;20108;-53
2022/04/05 09:08:18;;;;;;;29.33;20.13;;;4.50;99.90;;;;;;5050261;28;20385;-52
2022/04/05 09:10:47;;;;;;;32.85;20.27;;;4.60;99.90;;;;;;5051002;28;20430;-53
2022/04/05 09:13:19;;;;;;;33.13;21.38;;;4.60;99.90;;;;;;5050826;28;20056;-51
2022/04/05 09:15:50;;;;;;;38.53;24.55;;;4.70;99.90;;;;;;5050813;28;20365;-53
2022/04/05 09:18:36;;;;;;;38.05;20.88;;;4.70;99.90;;;;;;5050301;28;20036;-52
2022/04/05 09:21:04;;;;;;;33.03;20.50;;;4.70;99.90;;;;;;5050850;28;20033;-53
2022/04/05 09:23:33;;;;;;;28.55;18.02;;;4.80;99.90;;;;;;5050743;28;20340;-54
2022/04/05 09:26:04;;;;;;;33.28;20.90;;;4.80;99.90;;;;;;5050512;28;20044;-52
2022/04/05 09:28:35;;;;;;;29.35;19.17;;;5.00;99.90;;;;;;5050690;28;20032;-52
2022/04/05 09:31:04;;;;;;;29.67;19.65;;;5.10;99.90;;;;;;5050964;28;20029;-52
2022/04/05 09:33:35;;;;;;;26.95;17.63;;;5.10;99.90;;;;;;5050437;28;20583;-52
2022/04/05 09:36:04;;;;;;;33.20;19.20;;;5.20;99.90;;;;;;5050277;28;20436;-52
2022/04/05 09:38:30;;;;;;;28.40;17.83;;;5.30;99.90;;;;;;5050677;28;20025;-51
2022/04/05 09:41:10;;;;;;;25.90;16.30;;;5.40;99.90;;;;;;5050438;28;20033;-52
2022/04/05 09:43:36;;;;;;;22.13;13.65;;;5.50;99.90;;;;;;5050504;28;20035;-52
2022/04/05 09:46:02;;;;;;;25.60;15.57;;;5.60;99.90;;;;;;5050527;28;20148;-53
2022/04/05 09:48:31;;;;;;;22.58;14.65;;;5.70;99.90;;;;;;5059752;28;20005;-60
2022/04/05 09:51:00;;;;;;;23.00;13.57;;;5.70;99.90;;;;;;5066731;28;20029;-54
2022/04/05 09:53:29;;;;;;;21.45;13.25;;;5.90;99.90;;;;;;5051012;28;20033;-52
2022/04/05 09:56:22;;;;;;;20.50;12.88;;;5.90;99.90;;;;;;5050248;28;20028;-51
2022/04/05 09:59:02;;;;;;;19.85;11.70;;;6.10;99.90;;;;;;5037751;28;20108;-53
2022/04/05 10:01:29;;;;;;;19.50;12.50;;;6.00;99.90;;;;;;5050442;28;20037;-52
2022/04/05 10:04:04;;;;;;;19.33;11.00;;;6.00;99.90;;;;;;5049711;28;20018;-52
2022/04/05 10:06:32;;;;;;;19.50;11.18;;;5.90;99.90;;;;;;5049565;28;20484;-53
2022/04/05 10:09:02;;;;;;;19.73;12.48;;;5.90;99.90;;;;;;5049851;28;20039;-52
2022/04/05 10:11:30;;;;;;;17.95;11.02;;;5.90;99.90;;;;;;5050761;28;20029;-51
2022/04/05 10:13:57;;;;;;;17.05;9.07;;;5.90;99.90;;;;;;5050190;28;20029;-51
2022/04/05 10:16:26;;;;;;;14.20;8.63;;;5.90;99.90;;;;;;5049801;28;20036;-53
2022/04/05 10:19:00;;;;;;;16.58;9.77;;;5.90;99.90;;;;;;5049824;28;20033;-52
2022/04/05 10:21:28;;;;;;;13.10;8.80;;;5.90;99.90;;;;;;5049643;28;20040;-52
2022/04/05 10:23:56;;;;;;;11.43;6.70;;;6.00;99.90;;;;;;5050062;28;20483;-53
2022/04/05 10:26:27;;;;;;;10.27;5.82;;;6.00;99.90;;;;;;5049428;28;20029;-52
2022/04/05 10:28:56;;;;;;;10.50;5.78;;;6.00;99.90;;;;;;5049592;28;20094;-52
2022/04/05 10:31:24;;;;;;;8.30;5.13;;;6.00;99.90;;;;;;5049782;28;20029;-52
2022/04/05 10:34:14;;;;;;;9.20;5.40;;;6.00;99.90;;;;;;5049427;28;20025;-54
2022/04/05 10:36:51;;;;;;;10.10;5.38;;;6.00;99.90;;;;;;5049776;28;20025;-53
2022/04/05 10:39:19;;;;;;;12.38;5.78;;;6.00;99.90;;;;;;5051757;28;20032;-53
2022/04/05 10:42:16;;;;;;;14.50;6.97;;;6.00;99.90;;;;;;5051665;28;20033;-51
2022/04/05 10:45:12;;;;;;;10.07;5.60;;;6.10;99.90;;;;;;5031829;28;20032;-53
2022/04/05 10:48:01;;;;;;;8.05;5.07;;;6.10;99.90;;;;;;5024030;28;20065;-53
2022/04/05 10:50:28;;;;;;;8.95;5.90;;;6.10;99.90;;;;;;5028163;28;20809;-53
2022/04/05 10:53:29;;;;;;;8.45;5.35;;;6.20;99.90;;;;;;5028703;28;20118;-52
2022/04/05 10:56:03;;;;;;;10.93;5.43;;;6.10;99.90;;;;;;5029124;28;20037;-53
2022/04/05 10:58:34;;;;;;;9.43;5.15;;;6.20;99.90;;;;;;5045683;28;20036;-53
2022/04/05 11:01:21;;;;;;;7.93;4.88;;;6.20;99.90;;;;;;5049059;28;20029;-53
2022/04/05 11:04:18;;;;;;;9.57;5.32;;;6.20;99.90;;;;;;5048331;28;20036;-52
2022/04/05 11:07:02;;;;;;;10.77;5.05;;;6.20;99.90;;;;;;5048997;28;20052;-52
2022/04/05 11:09:40;;;;;;;9.43;5.38;;;6.20;99.90;;;;;;5048710;28;20060;-51
2022/04/05 11:12:11;;;;;;;10.15;5.85;;;6.20;99.90;;;;;;5048533;28;20140;-52
2022/04/05 11:14:47;;;;;;;12.43;6.80;;;6.20;99.90;;;;;;5049929;28;20036;-52
2022/04/05 11:17:14;;;;;;;11.68;5.10;;;6.20;99.90;;;;;;5049255;28;20096;-53
2022/04/05 11:19:43;;;;;;;8.05;4.72;;;6.30;99.90;;;;;;5050220;28;20071;-51
2022/04/05 11:22:21;;;;;;;9.57;5.07;;;6.30;99.90;;;;;;5048459;28;20124;-52
2022/04/05 11:25:06;;;;;;;10.13;4.68;;;6.30;99.90;;;;;;5048550;28;20025;-50
2022/04/05 11:27:47;;;;;;;8.82;4.55;;;6.40;99.90;;;;;;5048657;28;20167;-52
2022/04/05 11:30:28;;;;;;;9.25;5.13;;;6.40;99.90;;;;;;5045450;28;20095;-51
2022/04/05 11:33:08;;;;;;;9.63;5.63;;;6.40;99.90;;;;;;5038411;28;20028;-53
2022/04/05 11:35:42;;;;;;;11.70;5.82;;;6.50;99.90;;;;;;5038515;28;20074;-53
2022/04/05 11:38:26;;;;;;;10.13;5.85;;;6.50;99.90;;;;;;5037987;28;20021;-52
2022/04/05 11:41:09;;;;;;;11.30;6.15;;;6.60;99.90;;;;;;5036782;28;20039;-51
2022/04/05 11:43:41;;;;;;;10.32;5.15;;;6.70;99.90;;;;;;5038780;28;20048;-54
2022/04/05 11:46:11;;;;;;;11.23;5.72;;;6.80;99.90;;;;;;5037839;28;20120;-53
2022/04/05 11:48:51;;;;;;;10.65;5.95;;;6.90;99.90;;;;;;5036330;28;20029;-54
2022/04/05 11:51:22;;;;;;;10.20;6.00;;;6.90;99.90;;;;;;5036439;28;20733;-53
2022/04/05 11:53:48;;;;;;;15.65;8.10;;;6.90;99.90;;;;;;5037004;28;20025;-52
2022/04/05 11:56:14;;;;;;;14.85;7.88;;;6.90;99.90;;;;;;5046779;28;20056;-53
2022/04/05 11:58:46;;;;;;;14.15;6.88;;;7.00;99.90;;;;;;5037430;28;20021;-52
2022/04/05 12:01:14;;;;;;;12.75;7.35;;;7.00;99.90;;;;;;5039173;28;20057;-52
2022/04/05 12:03:41;;;;;;;14.20;7.88;;;7.00;99.90;;;;;;5037332;28;20045;-53
2022/04/05 12:06:07;;;;;;;11.45;7.30;;;7.00;99.90;;;;;;5038548;28;20041;-53
2022/04/05 12:08:32;;;;;;;13.13;7.40;;;7.10;99.90;;;;;;5041290;28;20106;-52
2022/04/05 12:10:58;;;;;;;14.25;7.93;;;7.10;99.90;;;;;;5040139;28;20484;-52
2022/04/05 12:13:28;;;;;;;13.40;7.53;;;7.00;99.90;;;;;;5041431;28;20029;-51
2022/04/05 12:16:03;;;;;;;11.30;7.28;;;7.00;99.90;;;;;;5055923;28;20055;-52
2022/04/05 12:18:30;;;;;;;11.65;6.53;;;7.00;99.90;;;;;;5046311;28;20416;-53
2022/04/05 12:21:04;;;;;;;15.03;8.60;;;7.00;99.90;;;;;;5044916;28;20037;-52
2022/04/05 12:23:36;;;;;;;15.07;7.95;;;7.00;99.90;;;;;;5044182;28;20342;-51
2022/04/05 12:26:10;;;;;;;12.63;8.73;;;7.00;99.90;;;;;;5042562;28;20025;-51
2022/04/05 12:28:39;;;;;;;17.77;10.35;;;6.90;99.90;;;;;;5044394;28;20025;-51
2022/04/05 12:31:29;;;;;;;14.90;9.25;;;6.90;99.90;;;;;;5049470;28;20013;-52
2022/04/05 12:34:11;;;;;;;12.30;8.55;;;6.90;99.90;;;;;;5037518;28;20037;-52
2022/04/05 12:36:46;;;;;;;15.00;10.05;;;6.90;99.90;;;;;;5035691;28;20041;-51
2022/04/05 12:39:44;;;;;;;15.20;9.90;;;6.80;99.90;;;;;;5045199;28;20040;-52
2022/04/05 12:42:11;;;;;;;14.75;10.20;;;6.90;99.90;;;;;;5021583;28;20083;-52
2022/04/05 12:44:40;;;;;;;15.27;11.52;;;6.90;99.90;;;;;;5046368;28;20531;-51
2022/04/05 12:47:17;;;;;;;16.33;10.25;;;6.80;99.90;;;;;;5049307;28;20030;-53